sensor_id;sensor_type;location;lat;lon;timestamp;P1;durP1;ratioP1;P2;durP2;ratioP2
5058;SDS011;2548;52.050;11.036;2022-09-09T00:00:19;6.68;;;4.53;;
5058;SDS011;2548;52.050;11.036;2022-09-09T00:02:50;7.22;;;4.60;;
5058;SDS011;2548;52.050;11.036;2022-09-09T00:05:26;5.30;;;4.80;;
5058;SDS011;2548;52.050;11.036;2022-09-09T00:07:58;5.47;;;4.95;;
5058;SDS011;2548;52.050;11.036;2022-09-09T00:10:30;7.05;;;4.13;;
5058;SDS011;2548;52.050;11.036;2022-09-09T00:13:01;4.40;;;4.10;;
5058;SDS011;2548;52.050;11.036;2022-09-09T00:15:38;4.32;;;4.03;;
5058;SDS011;2548;52.050;11.036;2022-09-09T00:18:15;5.53;;;4.93;;
5058;SDS011;2548;52.050;11.036;2022-09-09T00:20:52;4.18;;;3.97;;
5058;SDS011;2548;52.050;11.036;2022-09-09T00:23:24;9.50;;;4.75;;
5058;SDS011;2548;52.050;11.036;2022-09-09T00:25:57;3.97;;;3.72;;
5058;SDS011;2548;52.050;11.036;2022-09-09T00:28:30;5.07;;;4.63;;
5058;SDS011;2548;52.050;11.036;2022-09-09T00:31:07;4.70;;;4.30;;
5058;SDS011;2548;52.050;11.036;2022-09-09T00:33:40;6.80;;;4.80;;
5058;SDS011;2548;52.050;11.036;2022-09-09T00:36:12;6.40;;;4.20;;
5058;SDS011;2548;52.050;11.036;2022-09-09T00:38:42;5.25;;;4.35;;
5058;SDS011;2548;52.050;11.036;2022-09-09T00:41:14;5.10;;;4.63;;
5058;SDS011;2548;52.050;11.036;2022-09-09T00:43:51;5.63;;;4.63;;
5058;SDS011;2548;52.050;11.036;2022-09-09T00:46:30;4.90;;;4.15;;
5058;SDS011;2548;52.050;11.036;2022-09-09T00:49:12;9.18;;;5.38;;
5058;SDS011;2548;52.050;11.036;2022-09-09T00:51:49;5.28;;;4.90;;
5058;SDS011;2548;52.050;11.036;2022-09-09T00:54:31;5.15;;;4.63;;
5058;SDS011;2548;52.050;11.036;2022-09-09T00:57:07;5.18;;;4.70;;
5058;SDS011;2548;52.050;11.036;2022-09-09T00:59:46;7.97;;;4.45;;
5058;SDS011;2548;52.050;11.036;2022-09-09T01:02:20;7.45;;;5.03;;
5058;SDS011;2548;52.050;11.036;2022-09-09T01:04:55;6.93;;;4.78;;
5058;SDS011;2548;52.050;11.036;2022-09-09T01:07:31;5.47;;;5.07;;
5058;SDS011;2548;52.050;11.036;2022-09-09T01:10:00;9.52;;;5.03;;
5058;SDS011;2548;52.050;11.036;2022-09-09T01:12:34;5.22;;;4.22;;
5058;SDS011;2548;52.050;11.036;2022-09-09T01:15:09;7.90;;;5.53;;
5058;SDS011;2548;52.050;11.036;2022-09-09T01:17:50;4.95;;;4.65;;
5058;SDS011;2548;52.050;11.036;2022-09-09T01:20:23;5.78;;;5.38;;
5058;SDS011;2548;52.050;11.036;2022-09-09T01:22:59;5.63;;;4.88;;
5058;SDS011;2548;52.050;11.036;2022-09-09T01:28:46;4.70;;;4.45;;
5058;SDS011;2548;52.050;11.036;2022-09-09T01:31:17;9.60;;;5.95;;
5058;SDS011;2548;52.050;11.036;2022-09-09T01:33:47;7.20;;;6.57;;
5058;SDS011;2548;52.050;11.036;2022-09-09T01:36:18;13.02;;;5.25;;
5058;SDS011;2548;52.050;11.036;2022-09-09T01:38:51;5.10;;;4.70;;
5058;SDS011;2548;52.050;11.036;2022-09-09T01:41:21;5.60;;;5.10;;
5058;SDS011;2548;52.050;11.036;2022-09-09T01:44:04;8.05;;;5.65;;
5058;SDS011;2548;52.050;11.036;2022-09-09T01:46:34;11.32;;;5.93;;
5058;SDS011;2548;52.050;11.036;2022-09-09T01:49:03;5.22;;;4.10;;
5058;SDS011;2548;52.050;11.036;2022-09-09T01:51:33;5.63;;;4.93;;
5058;SDS011;2548;52.050;11.036;2022-09-09T01:54:04;6.72;;;5.30;;
5058;SDS011;2548;52.050;11.036;2022-09-09T01:56:38;5.75;;;5.05;;
5058;SDS011;2548;52.050;11.036;2022-09-09T01:59:23;6.10;;;5.55;;
5058;SDS011;2548;52.050;11.036;2022-09-09T02:02:03;5.55;;;5.15;;
5058;SDS011;2548;52.050;11.036;2022-09-09T02:04:39;5.90;;;5.30;;
5058;SDS011;2548;52.050;11.036;2022-09-09T02:07:15;5.80;;;4.78;;
5058;SDS011;2548;52.050;11.036;2022-09-09T02:09:55;5.53;;;4.82;;
5058;SDS011;2548;52.050;11.036;2022-09-09T02:12:28;4.90;;;4.25;;
5058;SDS011;2548;52.050;11.036;2022-09-09T02:15:01;5.68;;;5.05;;
5058;SDS011;2548;52.050;11.036;2022-09-09T02:17:41;10.73;;;5.18;;
5058;SDS011;2548;52.050;11.036;2022-09-09T02:20:13;4.85;;;4.40;;
5058;SDS011;2548;52.050;11.036;2022-09-09T02:22:47;6.07;;;5.05;;
5058;SDS011;2548;52.050;11.036;2022-09-09T02:25:19;11.98;;;5.03;;
5058;SDS011;2548;52.050;11.036;2022-09-09T02:27:52;7.22;;;4.85;;
5058;SDS011;2548;52.050;11.036;2022-09-09T02:30:20;4.50;;;4.10;;
5058;SDS011;2548;52.050;11.036;2022-09-09T02:32:53;5.10;;;4.78;;
5058;SDS011;2548;52.050;11.036;2022-09-09T02:35:30;4.88;;;4.57;;
5058;SDS011;2548;52.050;11.036;2022-09-09T02:37:59;5.07;;;3.97;;
5058;SDS011;2548;52.050;11.036;2022-09-09T02:40:33;4.88;;;3.95;;
5058;SDS011;2548;52.050;11.036;2022-09-09T02:43:04;5.47;;;4.95;;
5058;SDS011;2548;52.050;11.036;2022-09-09T02:45:34;5.40;;;4.20;;
5058;SDS011;2548;52.050;11.036;2022-09-09T02:48:12;3.83;;;3.45;;
5058;SDS011;2548;52.050;11.036;2022-09-09T02:50:44;5.88;;;3.45;;
5058;SDS011;2548;52.050;11.036;2022-09-09T02:53:24;4.03;;;3.08;;
5058;SDS011;2548;52.050;11.036;2022-09-09T02:55:57;3.75;;;3.15;;
5058;SDS011;2548;52.050;11.036;2022-09-09T02:58:34;5.78;;;3.15;;
5058;SDS011;2548;52.050;11.036;2022-09-09T03:01:05;4.38;;;4.00;;
5058;SDS011;2548;52.050;11.036;2022-09-09T03:03:34;3.92;;;3.60;;
5058;SDS011;2548;52.050;11.036;2022-09-09T03:06:06;3.15;;;3.05;;
5058;SDS011;2548;52.050;11.036;2022-09-09T03:08:34;8.13;;;3.42;;
5058;SDS011;2548;52.050;11.036;2022-09-09T03:11:01;3.60;;;2.75;;
5058;SDS011;2548;52.050;11.036;2022-09-09T03:13:32;3.38;;;2.95;;
5058;SDS011;2548;52.050;11.036;2022-09-09T03:16:01;3.70;;;3.28;;
5058;SDS011;2548;52.050;11.036;2022-09-09T03:18:32;3.38;;;2.55;;
5058;SDS011;2548;52.050;11.036;2022-09-09T03:21:00;2.88;;;2.60;;
5058;SDS011;2548;52.050;11.036;2022-09-09T03:23:29;3.60;;;2.53;;
5058;SDS011;2548;52.050;11.036;2022-09-09T03:26:00;8.82;;;2.30;;
5058;SDS011;2548;52.050;11.036;2022-09-09T03:28:36;5.47;;;2.90;;
5058;SDS011;2548;52.050;11.036;2022-09-09T03:31:06;2.67;;;2.42;;
5058;SDS011;2548;52.050;11.036;2022-09-09T03:33:38;2.88;;;1.88;;
5058;SDS011;2548;52.050;11.036;2022-09-09T03:36:07;2.35;;;1.92;;
5058;SDS011;2548;52.050;11.036;2022-09-09T03:38:36;5.95;;;2.00;;
5058;SDS011;2548;52.050;11.036;2022-09-09T03:41:03;8.27;;;2.30;;
5058;SDS011;2548;52.050;11.036;2022-09-09T03:43:33;2.20;;;2.10;;
5058;SDS011;2548;52.050;11.036;2022-09-09T03:46:02;4.57;;;2.80;;
5058;SDS011;2548;52.050;11.036;2022-09-09T03:48:31;3.63;;;1.90;;
5058;SDS011;2548;52.050;11.036;2022-09-09T03:50:59;3.35;;;2.25;;
5058;SDS011;2548;52.050;11.036;2022-09-09T03:53:30;9.35;;;1.95;;
5058;SDS011;2548;52.050;11.036;2022-09-09T03:55:57;10.88;;;2.60;;
5058;SDS011;2548;52.050;11.036;2022-09-09T03:58:27;2.90;;;2.05;;
5058;SDS011;2548;52.050;11.036;2022-09-09T04:01:01;7.70;;;2.35;;
5058;SDS011;2548;52.050;11.036;2022-09-09T04:03:31;2.00;;;1.90;;
5058;SDS011;2548;52.050;11.036;2022-09-09T04:06:01;4.25;;;1.40;;
5058;SDS011;2548;52.050;11.036;2022-09-09T04:08:31;1.88;;;1.70;;
5058;SDS011;2548;52.050;11.036;2022-09-09T04:10:59;2.00;;;1.90;;
5058;SDS011;2548;52.050;11.036;2022-09-09T04:13:31;6.18;;;2.03;;
5058;SDS011;2548;52.050;11.036;2022-09-09T04:16:01;5.05;;;1.92;;
5058;SDS011;2548;52.050;11.036;2022-09-09T04:18:32;2.05;;;1.85;;
5058;SDS011;2548;52.050;11.036;2022-09-09T04:21:00;1.80;;;1.70;;
5058;SDS011;2548;52.050;11.036;2022-09-09T04:23:30;2.00;;;1.80;;
5058;SDS011;2548;52.050;11.036;2022-09-09T04:25:59;3.80;;;1.80;;
5058;SDS011;2548;52.050;11.036;2022-09-09T04:28:28;4.03;;;1.92;;
5058;SDS011;2548;52.050;11.036;2022-09-09T04:31:03;2.33;;;1.63;;
5058;SDS011;2548;52.050;11.036;2022-09-09T04:33:34;4.45;;;2.15;;
5058;SDS011;2548;52.050;11.036;2022-09-09T04:36:01;3.25;;;1.80;;
5058;SDS011;2548;52.050;11.036;2022-09-09T04:38:29;6.85;;;2.10;;
5058;SDS011;2548;52.050;11.036;2022-09-09T04:40:57;3.85;;;2.03;;
5058;SDS011;2548;52.050;11.036;2022-09-09T04:43:24;8.23;;;2.90;;
5058;SDS011;2548;52.050;11.036;2022-09-09T04:45:53;8.60;;;2.60;;
5058;SDS011;2548;52.050;11.036;2022-09-09T04:48:24;5.38;;;2.63;;
5058;SDS011;2548;52.050;11.036;2022-09-09T04:50:56;4.57;;;1.88;;
5058;SDS011;2548;52.050;11.036;2022-09-09T04:53:25;4.75;;;2.20;;
5058;SDS011;2548;52.050;11.036;2022-09-09T04:56:00;7.78;;;1.80;;
5058;SDS011;2548;52.050;11.036;2022-09-09T04:58:30;4.30;;;2.60;;
5058;SDS011;2548;52.050;11.036;2022-09-09T05:01:02;3.25;;;2.40;;
5058;SDS011;2548;52.050;11.036;2022-09-09T05:03:35;5.57;;;2.40;;
5058;SDS011;2548;52.050;11.036;2022-09-09T05:06:08;10.38;;;2.40;;
5058;SDS011;2548;52.050;11.036;2022-09-09T05:08:37;5.05;;;2.55;;
5058;SDS011;2548;52.050;11.036;2022-09-09T05:11:12;4.68;;;2.33;;
5058;SDS011;2548;52.050;11.036;2022-09-09T05:13:43;3.60;;;2.05;;
5058;SDS011;2548;52.050;11.036;2022-09-09T05:16:11;9.25;;;3.22;;
5058;SDS011;2548;52.050;11.036;2022-09-09T05:18:39;12.57;;;3.80;;
5058;SDS011;2548;52.050;11.036;2022-09-09T05:21:10;5.50;;;2.80;;
5058;SDS011;2548;52.050;11.036;2022-09-09T05:23:37;6.50;;;2.80;;
5058;SDS011;2548;52.050;11.036;2022-09-09T05:26:05;5.75;;;2.60;;
5058;SDS011;2548;52.050;11.036;2022-09-09T05:28:34;6.47;;;3.00;;
5058;SDS011;2548;52.050;11.036;2022-09-09T05:31:03;3.75;;;2.33;;
5058;SDS011;2548;52.050;11.036;2022-09-09T05:33:34;4.15;;;2.58;;
5058;SDS011;2548;52.050;11.036;2022-09-09T05:36:03;6.68;;;2.80;;
5058;SDS011;2548;52.050;11.036;2022-09-09T05:38:34;3.05;;;2.50;;
5058;SDS011;2548;52.050;11.036;2022-09-09T05:41:04;3.90;;;2.88;;
5058;SDS011;2548;52.050;11.036;2022-09-09T05:43:31;5.65;;;2.65;;
5058;SDS011;2548;52.050;11.036;2022-09-09T05:46:02;9.02;;;2.60;;
5058;SDS011;2548;52.050;11.036;2022-09-09T05:48:32;6.53;;;3.50;;
5058;SDS011;2548;52.050;11.036;2022-09-09T05:51:01;9.55;;;2.53;;
5058;SDS011;2548;52.050;11.036;2022-09-09T05:53:30;5.40;;;2.50;;
5058;SDS011;2548;52.050;11.036;2022-09-09T05:56:01;6.90;;;2.78;;
5058;SDS011;2548;52.050;11.036;2022-09-09T05:58:32;3.25;;;2.78;;
5058;SDS011;2548;52.050;11.036;2022-09-09T06:01:03;5.70;;;2.55;;
5058;SDS011;2548;52.050;11.036;2022-09-09T06:03:32;3.30;;;2.30;;
5058;SDS011;2548;52.050;11.036;2022-09-09T06:06:01;3.85;;;3.17;;
5058;SDS011;2548;52.050;11.036;2022-09-09T06:08:31;4.25;;;2.20;;
5058;SDS011;2548;52.050;11.036;2022-09-09T06:11:03;12.77;;;3.45;;
5058;SDS011;2548;52.050;11.036;2022-09-09T06:13:32;3.05;;;2.15;;
5058;SDS011;2548;52.050;11.036;2022-09-09T06:16:00;5.38;;;2.00;;
5058;SDS011;2548;52.050;11.036;2022-09-09T06:18:28;3.92;;;2.80;;
5058;SDS011;2548;52.050;11.036;2022-09-09T06:20:56;2.67;;;2.47;;
5058;SDS011;2548;52.050;11.036;2022-09-09T06:23:26;3.03;;;2.00;;
5058;SDS011;2548;52.050;11.036;2022-09-09T06:26:00;5.57;;;2.30;;
5058;SDS011;2548;52.050;11.036;2022-09-09T06:28:30;8.77;;;2.70;;
5058;SDS011;2548;52.050;11.036;2022-09-09T06:30:58;1.95;;;1.85;;
5058;SDS011;2548;52.050;11.036;2022-09-09T06:33:26;4.95;;;2.60;;
5058;SDS011;2548;52.050;11.036;2022-09-09T06:35:54;5.22;;;2.40;;
5058;SDS011;2548;52.050;11.036;2022-09-09T06:38:23;7.45;;;2.78;;
5058;SDS011;2548;52.050;11.036;2022-09-09T06:40:51;6.95;;;2.33;;
5058;SDS011;2548;52.050;11.036;2022-09-09T06:43:20;5.38;;;2.10;;
5058;SDS011;2548;52.050;11.036;2022-09-09T06:45:54;4.60;;;2.58;;
5058;SDS011;2548;52.050;11.036;2022-09-09T06:48:23;5.20;;;2.28;;
5058;SDS011;2548;52.050;11.036;2022-09-09T06:50:51;6.35;;;2.47;;
5058;SDS011;2548;52.050;11.036;2022-09-09T06:53:26;5.05;;;2.60;;
5058;SDS011;2548;52.050;11.036;2022-09-09T06:55:54;3.13;;;2.33;;
5058;SDS011;2548;52.050;11.036;2022-09-09T06:58:22;3.28;;;2.22;;
5058;SDS011;2548;52.050;11.036;2022-09-09T07:00:50;5.53;;;2.15;;
5058;SDS011;2548;52.050;11.036;2022-09-09T07:03:20;6.22;;;2.42;;
5058;SDS011;2548;52.050;11.036;2022-09-09T07:05:53;5.03;;;2.10;;
5058;SDS011;2548;52.050;11.036;2022-09-09T07:08:22;10.93;;;1.73;;
5058;SDS011;2548;52.050;11.036;2022-09-09T07:10:50;6.47;;;2.13;;
5058;SDS011;2548;52.050;11.036;2022-09-09T07:13:19;4.83;;;2.23;;
5058;SDS011;2548;52.050;11.036;2022-09-09T07:15:51;4.53;;;2.60;;
5058;SDS011;2548;52.050;11.036;2022-09-09T07:18:19;6.90;;;2.40;;
5058;SDS011;2548;52.050;11.036;2022-09-09T07:20:52;4.32;;;1.70;;
5058;SDS011;2548;52.050;11.036;2022-09-09T07:23:22;3.70;;;2.17;;
5058;SDS011;2548;52.050;11.036;2022-09-09T07:25:50;12.13;;;2.15;;
5058;SDS011;2548;52.050;11.036;2022-09-09T07:28:18;4.50;;;2.22;;
5058;SDS011;2548;52.050;11.036;2022-09-09T07:30:52;12.43;;;2.40;;
5058;SDS011;2548;52.050;11.036;2022-09-09T07:33:21;4.97;;;2.60;;
5058;SDS011;2548;52.050;11.036;2022-09-09T07:35:50;4.13;;;1.90;;
5058;SDS011;2548;52.050;11.036;2022-09-09T07:38:18;4.25;;;1.85;;
5058;SDS011;2548;52.050;11.036;2022-09-09T07:40:47;4.55;;;1.60;;
5058;SDS011;2548;52.050;11.036;2022-09-09T07:43:14;6.47;;;1.97;;
5058;SDS011;2548;52.050;11.036;2022-09-09T07:45:43;6.50;;;1.70;;
5058;SDS011;2548;52.050;11.036;2022-09-09T07:48:10;2.92;;;1.73;;
5058;SDS011;2548;52.050;11.036;2022-09-09T07:50:39;4.00;;;1.70;;
5058;SDS011;2548;52.050;11.036;2022-09-09T07:53:07;3.40;;;1.60;;
5058;SDS011;2548;52.050;11.036;2022-09-09T07:55:35;3.83;;;1.70;;
5058;SDS011;2548;52.050;11.036;2022-09-09T07:58:02;1.42;;;1.33;;
5058;SDS011;2548;52.050;11.036;2022-09-09T08:00:30;4.90;;;1.70;;
5058;SDS011;2548;52.050;11.036;2022-09-09T08:02:59;7.07;;;1.60;;
5058;SDS011;2548;52.050;11.036;2022-09-09T08:05:27;4.33;;;1.23;;
5058;SDS011;2548;52.050;11.036;2022-09-09T08:07:56;9.53;;;1.93;;
5058;SDS011;2548;52.050;11.036;2022-09-09T08:10:24;2.97;;;0.93;;
5058;SDS011;2548;52.050;11.036;2022-09-09T08:12:53;7.78;;;1.75;;
5058;SDS011;2548;52.050;11.036;2022-09-09T08:15:21;7.30;;;1.47;;
5058;SDS011;2548;52.050;11.036;2022-09-09T08:17:48;1.53;;;1.20;;
5058;SDS011;2548;52.050;11.036;2022-09-09T08:20:15;1.75;;;1.08;;
5058;SDS011;2548;52.050;11.036;2022-09-09T08:22:43;3.90;;;1.30;;
5058;SDS011;2548;52.050;11.036;2022-09-09T08:25:13;3.53;;;1.47;;
5058;SDS011;2548;52.050;11.036;2022-09-09T08:27:41;6.20;;;1.30;;
5058;SDS011;2548;52.050;11.036;2022-09-09T08:30:09;2.33;;;1.20;;
5058;SDS011;2548;52.050;11.036;2022-09-09T08:32:37;1.80;;;0.90;;
5058;SDS011;2548;52.050;11.036;2022-09-09T08:35:05;5.27;;;1.37;;
5058;SDS011;2548;52.050;11.036;2022-09-09T08:37:33;3.90;;;1.50;;
5058;SDS011;2548;52.050;11.036;2022-09-09T08:40:00;2.60;;;1.20;;
5058;SDS011;2548;52.050;11.036;2022-09-09T08:42:36;1.63;;;1.40;;
5058;SDS011;2548;52.050;11.036;2022-09-09T08:45:16;7.27;;;2.03;;
5058;SDS011;2548;52.050;11.036;2022-09-09T08:47:53;3.90;;;1.93;;
5058;SDS011;2548;52.050;11.036;2022-09-09T08:50:30;1.07;;;0.97;;
5058;SDS011;2548;52.050;11.036;2022-09-09T08:53:11;1.95;;;0.90;;
5058;SDS011;2548;52.050;11.036;2022-09-09T08:55:44;1.27;;;1.17;;
5058;SDS011;2548;52.050;11.036;2022-09-09T08:58:17;2.43;;;1.60;;
5058;SDS011;2548;52.050;11.036;2022-09-09T09:00:53;1.90;;;1.27;;
5058;SDS011;2548;52.050;11.036;2022-09-09T09:03:33;5.60;;;1.60;;
5058;SDS011;2548;52.050;11.036;2022-09-09T09:06:12;1.90;;;1.10;;
5058;SDS011;2548;52.050;11.036;2022-09-09T09:08:55;5.33;;;1.37;;
5058;SDS011;2548;52.050;11.036;2022-09-09T09:11:34;3.70;;;1.63;;
5058;SDS011;2548;52.050;11.036;2022-09-09T09:14:07;3.57;;;1.33;;
5058;SDS011;2548;52.050;11.036;2022-09-09T09:16:39;4.00;;;1.30;;
5058;SDS011;2548;52.050;11.036;2022-09-09T09:19:14;3.23;;;1.00;;
5058;SDS011;2548;52.050;11.036;2022-09-09T09:21:44;4.60;;;1.20;;
5058;SDS011;2548;52.050;11.036;2022-09-09T09:24:18;2.60;;;0.90;;
5058;SDS011;2548;52.050;11.036;2022-09-09T09:26:48;3.03;;;1.40;;
5058;SDS011;2548;52.050;11.036;2022-09-09T09:29:19;5.87;;;1.30;;
5058;SDS011;2548;52.050;11.036;2022-09-09T09:31:50;10.30;;;1.43;;
5058;SDS011;2548;52.050;11.036;2022-09-09T09:34:22;4.63;;;1.30;;
5058;SDS011;2548;52.050;11.036;2022-09-09T09:36:52;3.13;;;1.00;;
5058;SDS011;2548;52.050;11.036;2022-09-09T09:39:22;1.53;;;0.97;;
5058;SDS011;2548;52.050;11.036;2022-09-09T09:41:51;4.63;;;1.50;;
5058;SDS011;2548;52.050;11.036;2022-09-09T09:44:25;1.30;;;0.83;;
5058;SDS011;2548;52.050;11.036;2022-09-09T09:47:05;6.87;;;1.70;;
5058;SDS011;2548;52.050;11.036;2022-09-09T09:49:34;3.60;;;1.17;;
5058;SDS011;2548;52.050;11.036;2022-09-09T09:52:02;1.80;;;1.17;;
5058;SDS011;2548;52.050;11.036;2022-09-09T09:54:31;3.97;;;1.40;;
5058;SDS011;2548;52.050;11.036;2022-09-09T09:57:09;2.67;;;1.00;;
5058;SDS011;2548;52.050;11.036;2022-09-09T09:59:41;1.93;;;0.93;;
5058;SDS011;2548;52.050;11.036;2022-09-09T10:02:24;1.97;;;0.87;;
5058;SDS011;2548;52.050;11.036;2022-09-09T10:05:06;1.80;;;1.00;;
5058;SDS011;2548;52.050;11.036;2022-09-09T10:07:43;3.07;;;1.23;;
5058;SDS011;2548;52.050;11.036;2022-09-09T10:10:13;4.80;;;1.37;;
5058;SDS011;2548;52.050;11.036;2022-09-09T10:12:51;4.13;;;1.00;;
5058;SDS011;2548;52.050;11.036;2022-09-09T10:15:30;3.43;;;1.30;;
5058;SDS011;2548;52.050;11.036;2022-09-09T10:18:12;3.80;;;1.30;;
5058;SDS011;2548;52.050;11.036;2022-09-09T10:20:54;3.03;;;1.07;;
5058;SDS011;2548;52.050;11.036;2022-09-09T10:23:36;2.00;;;1.27;;
5058;SDS011;2548;52.050;11.036;2022-09-09T10:26:17;3.10;;;1.00;;
5058;SDS011;2548;52.050;11.036;2022-09-09T10:29:00;2.10;;;0.80;;
5058;SDS011;2548;52.050;11.036;2022-09-09T10:31:45;8.03;;;1.63;;
5058;SDS011;2548;52.050;11.036;2022-09-09T10:34:24;3.47;;;1.30;;
5058;SDS011;2548;52.050;11.036;2022-09-09T10:37:11;6.67;;;1.60;;
5058;SDS011;2548;52.050;11.036;2022-09-09T10:39:49;2.20;;;1.20;;
5058;SDS011;2548;52.050;11.036;2022-09-09T10:42:28;2.70;;;0.93;;
5058;SDS011;2548;52.050;11.036;2022-09-09T10:45:01;4.03;;;1.43;;
5058;SDS011;2548;52.050;11.036;2022-09-09T10:50:43;7.80;;;1.23;;
5058;SDS011;2548;52.050;11.036;2022-09-09T10:53:18;6.27;;;1.47;;
5058;SDS011;2548;52.050;11.036;2022-09-09T10:55:56;1.83;;;0.93;;
5058;SDS011;2548;52.050;11.036;2022-09-09T10:58:28;4.40;;;1.70;;
5058;SDS011;2548;52.050;11.036;2022-09-09T11:01:03;1.87;;;1.13;;
5058;SDS011;2548;52.050;11.036;2022-09-09T11:03:40;1.80;;;1.00;;
5058;SDS011;2548;52.050;11.036;2022-09-09T11:06:12;2.10;;;0.77;;
5058;SDS011;2548;52.050;11.036;2022-09-09T11:08:42;3.60;;;1.23;;
5058;SDS011;2548;52.050;11.036;2022-09-09T11:11:11;4.63;;;1.50;;
5058;SDS011;2548;52.050;11.036;2022-09-09T11:13:44;4.67;;;1.80;;
5058;SDS011;2548;52.050;11.036;2022-09-09T11:16:20;1.83;;;1.30;;
5058;SDS011;2548;52.050;11.036;2022-09-09T11:18:55;3.80;;;1.17;;
5058;SDS011;2548;52.050;11.036;2022-09-09T11:21:27;2.20;;;1.00;;
5058;SDS011;2548;52.050;11.036;2022-09-09T11:23:57;6.77;;;1.60;;
5058;SDS011;2548;52.050;11.036;2022-09-09T11:26:30;4.90;;;1.43;;
5058;SDS011;2548;52.050;11.036;2022-09-09T11:29:11;4.63;;;1.17;;
5058;SDS011;2548;52.050;11.036;2022-09-09T11:32:01;3.27;;;1.43;;
5058;SDS011;2548;52.050;11.036;2022-09-09T11:34:42;2.00;;;1.40;;
5058;SDS011;2548;52.050;11.036;2022-09-09T11:37:29;2.93;;;1.30;;
5058;SDS011;2548;52.050;11.036;2022-09-09T11:40:17;3.70;;;2.37;;
5058;SDS011;2548;52.050;11.036;2022-09-09T11:42:49;3.97;;;1.10;;
5058;SDS011;2548;52.050;11.036;2022-09-09T11:45:27;3.37;;;1.00;;
5058;SDS011;2548;52.050;11.036;2022-09-09T11:47:56;4.30;;;1.20;;
5058;SDS011;2548;52.050;11.036;2022-09-09T11:50:30;6.63;;;2.03;;
5058;SDS011;2548;52.050;11.036;2022-09-09T11:53:04;2.40;;;1.30;;
5058;SDS011;2548;52.050;11.036;2022-09-09T11:55:42;4.70;;;1.70;;
5058;SDS011;2548;52.050;11.036;2022-09-09T11:58:15;5.37;;;1.40;;
5058;SDS011;2548;52.050;11.036;2022-09-09T12:00:44;5.90;;;1.30;;
5058;SDS011;2548;52.050;11.036;2022-09-09T12:06:09;2.50;;;1.40;;
5058;SDS011;2548;52.050;11.036;2022-09-09T12:08:41;11.13;;;1.47;;
5058;SDS011;2548;52.050;11.036;2022-09-09T12:11:11;7.97;;;1.67;;
5058;SDS011;2548;52.050;11.036;2022-09-09T12:13:38;5.50;;;1.83;;
5058;SDS011;2548;52.050;11.036;2022-09-09T12:19:06;4.60;;;1.30;;
5058;SDS011;2548;52.050;11.036;2022-09-09T12:21:44;2.63;;;1.50;;
5058;SDS011;2548;52.050;11.036;2022-09-09T12:24:18;2.70;;;1.53;;
5058;SDS011;2548;52.050;11.036;2022-09-09T12:26:52;4.73;;;1.30;;
5058;SDS011;2548;52.050;11.036;2022-09-09T12:29:27;4.57;;;1.10;;
5058;SDS011;2548;52.050;11.036;2022-09-09T12:32:04;2.10;;;1.17;;
5058;SDS011;2548;52.050;11.036;2022-09-09T12:34:38;3.03;;;0.80;;
5058;SDS011;2548;52.050;11.036;2022-09-09T12:37:12;4.13;;;1.00;;
5058;SDS011;2548;52.050;11.036;2022-09-09T12:39:44;1.70;;;1.10;;
5058;SDS011;2548;52.050;11.036;2022-09-09T12:42:16;1.93;;;1.03;;
5058;SDS011;2548;52.050;11.036;2022-09-09T12:44:51;10.87;;;1.17;;
5058;SDS011;2548;52.050;11.036;2022-09-09T12:47:24;6.03;;;1.80;;
5058;SDS011;2548;52.050;11.036;2022-09-09T12:49:56;1.30;;;0.87;;
5058;SDS011;2548;52.050;11.036;2022-09-09T12:52:26;3.63;;;1.20;;
5058;SDS011;2548;52.050;11.036;2022-09-09T12:54:58;2.40;;;1.00;;
5058;SDS011;2548;52.050;11.036;2022-09-09T12:57:30;3.10;;;1.50;;
5058;SDS011;2548;52.050;11.036;2022-09-09T13:00:05;1.90;;;1.10;;
5058;SDS011;2548;52.050;11.036;2022-09-09T13:02:44;3.17;;;1.07;;
5058;SDS011;2548;52.050;11.036;2022-09-09T13:05:16;5.87;;;1.63;;
5058;SDS011;2548;52.050;11.036;2022-09-09T13:07:47;7.07;;;1.33;;
5058;SDS011;2548;52.050;11.036;2022-09-09T13:10:15;4.67;;;1.33;;
5058;SDS011;2548;52.050;11.036;2022-09-09T13:12:49;3.60;;;1.07;;
5058;SDS011;2548;52.050;11.036;2022-09-09T13:15:19;1.10;;;0.70;;
5058;SDS011;2548;52.050;11.036;2022-09-09T13:17:49;3.13;;;0.90;;
5058;SDS011;2548;52.050;11.036;2022-09-09T13:20:21;2.10;;;1.07;;
5058;SDS011;2548;52.050;11.036;2022-09-09T13:22:51;4.50;;;1.40;;
5058;SDS011;2548;52.050;11.036;2022-09-09T13:25:22;2.20;;;0.90;;
5058;SDS011;2548;52.050;11.036;2022-09-09T13:27:53;1.90;;;0.70;;
5058;SDS011;2548;52.050;11.036;2022-09-09T13:30:24;5.73;;;0.80;;
5058;SDS011;2548;52.050;11.036;2022-09-09T13:32:59;2.23;;;1.00;;
5058;SDS011;2548;52.050;11.036;2022-09-09T13:35:28;1.90;;;1.00;;
5058;SDS011;2548;52.050;11.036;2022-09-09T13:37:57;3.50;;;1.03;;
5058;SDS011;2548;52.050;11.036;2022-09-09T13:40:25;2.17;;;0.93;;
5058;SDS011;2548;52.050;11.036;2022-09-09T13:42:54;2.60;;;0.87;;
5058;SDS011;2548;52.050;11.036;2022-09-09T13:45:23;4.80;;;1.10;;
5058;SDS011;2548;52.050;11.036;2022-09-09T13:47:52;2.90;;;1.20;;
5058;SDS011;2548;52.050;11.036;2022-09-09T13:50:21;1.00;;;0.80;;
5058;SDS011;2548;52.050;11.036;2022-09-09T13:52:51;1.37;;;0.80;;
5058;SDS011;2548;52.050;11.036;2022-09-09T13:55:21;1.37;;;0.90;;
5058;SDS011;2548;52.050;11.036;2022-09-09T13:57:50;0.90;;;0.60;;
5058;SDS011;2548;52.050;11.036;2022-09-09T14:00:18;4.73;;;1.37;;
5058;SDS011;2548;52.050;11.036;2022-09-09T14:02:46;2.03;;;0.90;;
5058;SDS011;2548;52.050;11.036;2022-09-09T14:05:14;0.90;;;0.60;;
5058;SDS011;2548;52.050;11.036;2022-09-09T14:07:41;2.63;;;0.87;;
5058;SDS011;2548;52.050;11.036;2022-09-09T14:10:09;1.30;;;0.67;;
5058;SDS011;2548;52.050;11.036;2022-09-09T14:12:39;3.47;;;1.60;;
5058;SDS011;2548;52.050;11.036;2022-09-09T14:15:07;3.13;;;1.10;;
5058;SDS011;2548;52.050;11.036;2022-09-09T14:17:37;2.93;;;0.73;;
5058;SDS011;2548;52.050;11.036;2022-09-09T14:20:05;1.23;;;0.60;;
5058;SDS011;2548;52.050;11.036;2022-09-09T14:22:35;4.30;;;1.73;;
5058;SDS011;2548;52.050;11.036;2022-09-09T14:25:03;1.23;;;0.70;;
5058;SDS011;2548;52.050;11.036;2022-09-09T14:27:31;2.07;;;0.80;;
5058;SDS011;2548;52.050;11.036;2022-09-09T14:30:00;2.07;;;1.00;;
5058;SDS011;2548;52.050;11.036;2022-09-09T14:32:27;2.70;;;0.90;;
5058;SDS011;2548;52.050;11.036;2022-09-09T14:34:55;0.97;;;0.60;;
5058;SDS011;2548;52.050;11.036;2022-09-09T14:37:22;2.27;;;0.80;;
5058;SDS011;2548;52.050;11.036;2022-09-09T14:39:51;3.30;;;0.70;;
5058;SDS011;2548;52.050;11.036;2022-09-09T14:42:19;2.47;;;0.87;;
5058;SDS011;2548;52.050;11.036;2022-09-09T14:44:47;1.83;;;0.90;;
5058;SDS011;2548;52.050;11.036;2022-09-09T14:47:16;5.07;;;1.80;;
5058;SDS011;2548;52.050;11.036;2022-09-09T14:49:43;1.57;;;0.60;;
5058;SDS011;2548;52.050;11.036;2022-09-09T14:52:11;3.97;;;0.80;;
5058;SDS011;2548;52.050;11.036;2022-09-09T14:54:39;2.90;;;1.20;;
5058;SDS011;2548;52.050;11.036;2022-09-09T14:57:06;1.23;;;0.80;;
5058;SDS011;2548;52.050;11.036;2022-09-09T14:59:33;3.40;;;0.97;;
5058;SDS011;2548;52.050;11.036;2022-09-09T15:02:01;4.00;;;1.00;;
5058;SDS011;2548;52.050;11.036;2022-09-09T15:04:31;1.57;;;0.80;;
5058;SDS011;2548;52.050;11.036;2022-09-09T15:06:58;2.00;;;0.67;;
5058;SDS011;2548;52.050;11.036;2022-09-09T15:09:25;2.60;;;0.80;;
5058;SDS011;2548;52.050;11.036;2022-09-09T15:11:53;1.80;;;0.80;;
5058;SDS011;2548;52.050;11.036;2022-09-09T15:14:20;4.47;;;1.07;;
5058;SDS011;2548;52.050;11.036;2022-09-09T15:16:47;3.13;;;0.90;;
5058;SDS011;2548;52.050;11.036;2022-09-09T15:19:15;2.73;;;1.10;;
5058;SDS011;2548;52.050;11.036;2022-09-09T15:21:43;1.33;;;0.87;;
5058;SDS011;2548;52.050;11.036;2022-09-09T15:24:11;4.83;;;1.37;;
5058;SDS011;2548;52.050;11.036;2022-09-09T15:26:39;1.80;;;0.80;;
5058;SDS011;2548;52.050;11.036;2022-09-09T15:29:06;1.43;;;0.93;;
5058;SDS011;2548;52.050;11.036;2022-09-09T15:31:34;2.53;;;0.77;;
5058;SDS011;2548;52.050;11.036;2022-09-09T15:34:03;2.37;;;0.97;;
5058;SDS011;2548;52.050;11.036;2022-09-09T15:36:32;6.33;;;1.27;;
5058;SDS011;2548;52.050;11.036;2022-09-09T15:39:03;2.83;;;0.93;;